KGRF/GRF METAR and TAF weather

Enter ICAO airport designator
Station Type Date Time Source
KGRF METAR 2019/08/25 05:58 UTC NOAA

KGRF 250558Z AUTO 14003KT 10SM CLR 16/16 A3003 RMK AO2 SLP172 T01640156 10243 20164 52009 $


Station Type Date Time Source
KGRF Decoded METAR 2019/08/25 05:58 UTC NOAA

Station name not available
Aug 25, 2019 - 01:58 AM EDT / 2019.08.25 0558 UTC
Wind: from the SE (140 degrees) at 3 MPH (3 KT):0
Visibility: 10 mile(s):0
Sky conditions: clear
Temperature: 61.5 F (16.4 C)
Dew Point: 60.1 F (15.6 C)
Relative Humidity: 95%
Pressure (altimeter): 30.03 in. Hg (1016 hPa)
Pressure tendency: 0.03 inches (0.9 hPa) higher than three hours ago
ob: KGRF 250558Z AUTO 14003KT 10SM CLR 16/16 A3003 RMK AO2 SLP172 T01640156 10243 20164 52009
cycle: 6

Station Type Date Time Source
KGRF TAF 2019/08/25 05:03 UTC NOAA

TAF TAF KGRF 2505/2611 VRB06KT 9999 SCT040 BKN050 QNH3002INS
BECMG 2508/2509 22006KT 9999 BKN020 QNH3005INS
BECMG 2520/2521 VRB06KT 9999 SCT040 QNH3017INS TX23/2600Z TN14/2512Z

Example: see airport list